createdAt,value
2018-08-22T00:00:01.607Z,83.90
2018-08-22T00:02:29.477Z,83.90
2018-08-22T00:04:57.370Z,85.10
2018-08-22T00:07:24.876Z,84.80
2018-08-22T00:09:52.407Z,85.70
2018-08-22T00:12:20.541Z,87.30
2018-08-22T00:14:48.522Z,85.20
2018-08-22T00:17:16.049Z,84.20
2018-08-22T00:19:43.554Z,84.60
2018-08-22T00:22:11.783Z,84.30
2018-08-22T00:24:39.301Z,83.10
2018-08-22T00:27:06.796Z,83.20
2018-08-22T00:29:34.584Z,83.60
2018-08-22T00:32:02.380Z,83.60
2018-08-22T00:34:29.908Z,85.50
2018-08-22T00:36:58.148Z,86.70
2018-08-22T00:39:25.649Z,89.50
2018-08-22T00:41:53.156Z,86.70
2018-08-22T00:44:20.687Z,87.10
2018-08-22T00:46:49.036Z,86.40
2018-08-22T00:49:16.562Z,85.70
2018-08-22T00:51:44.392Z,86.10
2018-08-22T00:54:11.895Z,86.50
2018-08-22T00:56:39.909Z,86.00
2018-08-22T00:59:07.757Z,87.30
2018-08-22T01:01:35.621Z,85.50
2018-08-22T01:04:04.365Z,85.90
2018-08-22T01:06:31.902Z,86.60
2018-08-22T01:08:59.420Z,85.70
2018-08-22T01:11:27.605Z,85.80
2018-08-22T01:13:55.872Z,85.50
2018-08-22T01:16:23.364Z,87.40
2018-08-22T01:18:50.877Z,87.20
2018-08-22T01:21:18.801Z,87.80
2018-08-22T01:23:46.671Z,86.70
2018-08-22T01:26:14.167Z,86.70
2018-08-22T01:28:42.328Z,86.40
2018-08-22T01:31:10.162Z,87.50
2018-08-22T01:33:37.657Z,87.00
2018-08-22T01:36:05.818Z,87.20
2018-08-22T01:38:33.797Z,87.30
2018-08-22T01:41:01.837Z,87.60
2018-08-22T01:43:29.372Z,86.40
2018-08-22T01:45:57.664Z,86.30
2018-08-22T01:48:26.416Z,86.80
2018-08-22T01:50:54.264Z,86.20
2018-08-22T01:53:22.152Z,87.10
2018-08-22T01:55:49.671Z,86.70
2018-08-22T01:58:17.208Z,86.20
2018-08-22T02:00:45.351Z,87.20
2018-08-22T02:03:12.901Z,87.10
2018-08-22T02:05:40.416Z,87.70
2018-08-22T02:08:07.996Z,87.30
2018-08-22T02:10:36.312Z,88.10
2018-08-22T02:13:04.519Z,89.00
2018-08-22T02:15:32.024Z,89.00
2018-08-22T02:17:59.829Z,88.10
2018-08-22T02:20:27.316Z,87.70
2018-08-22T02:22:55.444Z,87.30
2018-08-22T02:25:22.965Z,87.50
2018-08-22T02:27:50.479Z,87.50
2018-08-22T02:30:18.725Z,87.70
2018-08-22T02:32:47.172Z,87.70
2018-08-22T02:35:15.332Z,87.70
2018-08-22T02:37:43.312Z,87.80
2018-08-22T02:40:10.810Z,86.90
2018-08-22T02:42:38.339Z,90.90
2018-08-22T02:45:06.295Z,88.80
2018-08-22T02:47:34.876Z,89.30
2018-08-22T02:50:02.368Z,88.30
2018-08-22T02:52:30.368Z,88.40
2018-08-22T02:54:57.872Z,88.30
2018-08-22T02:57:25.752Z,88.30
2018-08-22T02:59:53.852Z,88.00
2018-08-22T03:02:21.716Z,89.40
2018-08-22T03:04:49.620Z,88.70
2018-08-22T03:07:17.460Z,88.30
2018-08-22T03:09:44.959Z,89.00
2018-08-22T03:12:12.884Z,91.30
2018-08-22T03:14:40.368Z,89.60
2018-08-22T03:17:08.200Z,89.30
2018-08-22T03:19:35.693Z,89.30
2018-08-22T03:22:03.193Z,89.00
2018-08-22T03:24:30.711Z,88.60
2018-08-22T03:26:58.208Z,88.00
2018-08-22T03:29:25.800Z,88.00
2018-08-22T03:31:53.696Z,87.40
2018-08-22T03:34:21.215Z,87.40
2018-08-22T03:36:50.624Z,87.30
2018-08-22T03:39:18.132Z,87.70
2018-08-22T03:41:45.656Z,87.70
2018-08-22T03:44:13.464Z,88.10
2018-08-22T03:46:41.597Z,88.00
2018-08-22T03:49:09.093Z,88.40
2018-08-22T03:51:37.311Z,87.70
2018-08-22T03:54:05.478Z,87.80
2018-08-22T03:56:32.976Z,87.50
2018-08-22T03:59:01.173Z,87.20
2018-08-22T04:01:29.162Z,87.30
2018-08-22T04:03:56.952Z,87.10
2018-08-22T04:06:24.924Z,87.50
2018-08-22T04:08:52.446Z,87.30
2018-08-22T04:11:20.492Z,87.50
2018-08-22T04:13:48.343Z,87.30
2018-08-22T04:16:15.834Z,87.30
2018-08-22T04:18:43.380Z,88.70
2018-08-22T04:21:10.913Z,87.60
2018-08-22T04:23:38.764Z,87.50
2018-08-22T04:26:06.256Z,87.70
2018-08-22T04:28:33.823Z,86.80
2018-08-22T04:31:02.250Z,87.30
2018-08-22T04:33:30.200Z,86.90
2018-08-22T04:35:57.704Z,86.30
2018-08-22T04:38:26.010Z,86.20
2018-08-22T04:40:53.972Z,86.40
2018-08-22T04:43:21.504Z,86.50
2018-08-22T04:45:49.806Z,86.20
2018-08-22T04:48:17.339Z,86.70
2018-08-22T04:50:45.392Z,86.00
2018-08-22T04:53:13.268Z,86.40
2018-08-22T04:55:40.784Z,86.00
2018-08-22T04:58:08.295Z,86.10
2018-08-22T05:00:36.176Z,86.10
2018-08-22T05:03:03.994Z,85.80
2018-08-22T05:05:31.797Z,85.60
2018-08-22T05:07:59.964Z,85.50
2018-08-22T05:10:27.842Z,85.10
2018-08-22T05:12:55.804Z,85.20
2018-08-22T05:15:23.432Z,85.40
2018-08-22T05:17:50.959Z,85.00
2018-08-22T05:20:18.487Z,84.80
2018-08-22T05:22:45.976Z,84.30
2018-08-22T05:25:14.081Z,84.20
2018-08-22T05:27:41.609Z,84.00
2018-08-22T05:30:09.738Z,83.10
2018-08-22T05:32:37.550Z,83.00
2018-08-22T05:35:05.249Z,82.30
2018-08-22T05:37:33.068Z,82.50
2018-08-22T05:40:00.957Z,81.90
2018-08-22T05:42:28.452Z,81.40
2018-08-22T05:44:56.629Z,81.70
2018-08-22T05:47:24.493Z,80.00
2018-08-22T05:49:52.780Z,80.70
2018-08-22T05:52:20.806Z,80.80
2018-08-22T05:54:48.298Z,80.20
2018-08-22T05:57:15.832Z,79.00
2018-08-22T05:59:43.356Z,79.20
2018-08-22T06:02:11.250Z,78.80
2018-08-22T06:04:39.411Z,78.30
2018-08-22T06:07:07.422Z,78.50
2018-08-22T06:09:35.333Z,77.80
2018-08-22T06:12:03.226Z,76.90
2018-08-22T06:14:30.739Z,77.40
2018-08-22T06:16:58.755Z,77.40
2018-08-22T06:19:26.293Z,77.00
2018-08-22T06:21:53.816Z,75.90
2018-08-22T06:24:21.339Z,77.00
2018-08-22T06:26:49.594Z,75.40
2018-08-22T06:29:17.098Z,75.90
2018-08-22T06:31:46.058Z,73.10
2018-08-22T06:34:13.560Z,75.70
2018-08-22T06:36:41.567Z,75.90
2018-08-22T06:39:10.135Z,75.00
2018-08-22T06:41:38.011Z,75.50
2018-08-22T06:44:06.322Z,74.00
2018-08-22T06:46:34.282Z,74.80
2018-08-22T06:49:02.603Z,74.80
2018-08-22T06:51:30.469Z,74.40
2018-08-22T06:53:58.002Z,72.70
2018-08-22T06:56:25.810Z,71.80
2018-08-22T06:58:54.410Z,72.10
2018-08-22T07:01:21.895Z,71.90
2018-08-22T07:03:49.411Z,72.10
2018-08-22T07:06:17.508Z,69.80
2018-08-22T07:08:45.363Z,71.50
2018-08-22T07:11:13.542Z,71.00
2018-08-22T07:13:41.265Z,71.20
2018-08-22T07:16:08.807Z,71.00
2018-08-22T07:18:36.459Z,68.40
2018-08-22T07:21:04.212Z,70.30
2018-08-22T07:23:32.200Z,67.90
2018-08-22T07:26:00.085Z,68.20
2018-08-22T07:31:20.867Z,69.20
2018-08-22T07:33:49.511Z,68.60
2018-08-22T07:36:17.423Z,68.40
2018-08-22T07:38:45.254Z,67.60
2018-08-22T07:41:12.823Z,67.60
2018-08-22T07:43:40.706Z,66.80
2018-08-22T07:46:08.816Z,67.00
2018-08-22T07:48:36.365Z,66.80
2018-08-22T07:51:04.494Z,65.60
2018-08-22T07:53:32.007Z,65.80
2018-08-22T07:55:59.872Z,65.70
2018-08-22T07:58:27.757Z,65.50
2018-08-22T08:00:55.263Z,66.70
2018-08-22T08:03:23.394Z,65.80
2018-08-22T08:05:50.923Z,64.70
2018-08-22T08:08:18.967Z,64.80
2018-08-22T08:10:47.439Z,64.60
2018-08-22T08:13:21.701Z,64.00
2018-08-22T08:15:49.205Z,60.60
2018-08-22T08:18:16.695Z,62.80
2018-08-22T08:20:44.299Z,63.80
2018-08-22T08:23:11.841Z,63.00
2018-08-22T08:25:39.442Z,62.50
2018-08-22T08:28:07.685Z,61.70
2018-08-22T08:30:35.841Z,63.20
2018-08-22T08:33:03.705Z,62.50
2018-08-22T08:35:31.226Z,61.90
2018-08-22T08:37:58.732Z,60.90
2018-08-22T08:40:26.256Z,60.70
2018-08-22T08:42:54.037Z,59.20
2018-08-22T08:45:21.549Z,57.90
2018-08-22T08:47:49.661Z,58.90
2018-08-22T08:50:17.248Z,58.30
2018-08-22T08:52:45.120Z,59.10
2018-08-22T08:55:13.097Z,59.00
2018-08-22T08:57:40.624Z,58.60
2018-08-22T09:00:08.129Z,59.60
2018-08-22T09:02:35.998Z,58.50
2018-08-22T09:05:03.823Z,56.90
2018-08-22T09:07:31.341Z,56.30
2018-08-22T09:09:58.872Z,55.70
2018-08-22T09:12:27.096Z,55.30
2018-08-22T09:17:22.792Z,52.90
2018-08-22T09:19:50.237Z,54.60
2018-08-22T09:22:17.720Z,53.40
2018-08-22T09:24:45.231Z,53.90
2018-08-22T09:27:12.727Z,52.30
2018-08-22T09:29:41.000Z,51.70
2018-08-22T09:32:08.940Z,52.40
2018-08-22T09:34:36.450Z,52.40
2018-08-22T09:37:04.277Z,50.60
2018-08-22T09:39:32.259Z,50.10
2018-08-22T09:41:59.761Z,50.10
2018-08-22T09:44:27.248Z,49.70
2018-08-22T09:46:55.149Z,50.60
2018-08-22T09:49:23.132Z,50.40
2018-08-22T09:51:51.594Z,50.90
2018-08-22T09:54:19.108Z,50.00
2018-08-22T09:56:47.063Z,50.00
2018-08-22T09:59:15.106Z,49.80
2018-08-22T10:01:44.218Z,50.10
2018-08-22T10:04:12.234Z,50.20
2018-08-22T10:06:46.452Z,49.80
2018-08-22T10:09:16.887Z,48.80
2018-08-22T10:11:44.815Z,48.70
2018-08-22T10:14:12.615Z,48.20
2018-08-22T10:16:40.130Z,48.90
2018-08-22T10:19:07.650Z,48.70
2018-08-22T10:21:35.146Z,48.40
2018-08-22T10:24:03.586Z,49.00
2018-08-22T10:26:31.862Z,49.80
2018-08-22T10:28:59.347Z,49.70
2018-08-22T10:31:27.546Z,50.20
2018-08-22T10:33:55.460Z,49.80
2018-08-22T10:36:22.984Z,50.40
2018-08-22T10:38:51.035Z,49.10
2018-08-22T10:41:18.879Z,49.10
2018-08-22T10:43:46.386Z,49.60
2018-08-22T10:46:14.231Z,49.20
2018-08-22T10:48:42.279Z,49.30
2018-08-22T10:51:10.210Z,48.70
2018-08-22T10:53:38.418Z,48.70
2018-08-22T10:56:06.291Z,49.30
2018-08-22T10:58:34.204Z,49.80
2018-08-22T11:01:01.827Z,49.50
2018-08-22T11:03:29.614Z,48.40
2018-08-22T11:05:57.133Z,49.10
2018-08-22T11:08:24.978Z,49.10
2018-08-22T11:10:52.543Z,49.00
2018-08-22T11:13:20.458Z,48.50
2018-08-22T11:15:48.000Z,48.30
2018-08-22T11:18:15.490Z,48.80
2018-08-22T11:20:44.215Z,48.80
2018-08-22T11:23:24.564Z,48.70
2018-08-22T11:26:05.007Z,48.20
2018-08-22T11:28:44.850Z,48.50
2018-08-22T11:31:25.387Z,48.10
2018-08-22T11:34:04.344Z,48.90
2018-08-22T11:36:31.946Z,48.30
2018-08-22T11:38:59.453Z,47.20
2018-08-22T11:41:27.909Z,48.30
2018-08-22T11:43:55.410Z,47.50
2018-08-22T11:46:23.247Z,47.50
2018-08-22T11:48:50.739Z,47.70
2018-08-22T11:51:19.345Z,47.30
2018-08-22T11:53:47.447Z,47.50
2018-08-22T11:56:15.842Z,46.50
2018-08-22T11:58:44.138Z,46.80
2018-08-22T12:01:11.688Z,46.30
2018-08-22T12:03:39.209Z,46.30
2018-08-22T12:06:07.078Z,45.90
2018-08-22T12:08:34.570Z,46.10
2018-08-22T12:11:02.634Z,46.80
2018-08-22T12:13:30.678Z,45.90
2018-08-22T12:15:58.281Z,45.20
2018-08-22T12:18:25.786Z,45.30
2018-08-22T12:20:53.303Z,45.50
2018-08-22T12:23:21.238Z,45.50
2018-08-22T12:25:48.835Z,45.80
2018-08-22T12:28:16.622Z,44.20
2018-08-22T12:30:44.831Z,45.30
2018-08-22T12:33:12.739Z,45.20
2018-08-22T12:35:40.219Z,44.90
2018-08-22T12:38:07.711Z,45.60
2018-08-22T12:40:35.579Z,45.40
2018-08-22T12:43:04.237Z,45.00
2018-08-22T12:45:31.983Z,44.80
2018-08-22T12:48:00.235Z,44.50
2018-08-22T12:50:27.975Z,44.40
2018-08-22T12:52:55.859Z,44.60
2018-08-22T12:55:23.978Z,44.40
2018-08-22T12:57:51.847Z,43.90
2018-08-22T13:00:19.352Z,43.90
2018-08-22T13:02:47.257Z,44.10
2018-08-22T13:05:14.754Z,43.50
2018-08-22T13:07:42.275Z,43.50
2018-08-22T13:10:09.822Z,43.50
2018-08-22T13:12:38.106Z,43.00
2018-08-22T13:15:06.550Z,42.90
2018-08-22T13:17:34.503Z,42.60
2018-08-22T13:20:02.389Z,42.90
2018-08-22T13:22:30.056Z,43.00
2018-08-22T13:24:57.713Z,43.00
2018-08-22T13:27:25.239Z,41.80
2018-08-22T13:29:53.421Z,42.40
2018-08-22T13:32:21.789Z,41.60
2018-08-22T13:34:49.626Z,41.80
2018-08-22T13:37:17.119Z,41.40
2018-08-22T13:39:44.775Z,40.70
2018-08-22T13:42:12.715Z,41.10
2018-08-22T13:44:40.607Z,40.40
2018-08-22T13:47:09.122Z,39.60
2018-08-22T13:49:37.118Z,40.20
2018-08-22T13:52:05.666Z,39.90
2018-08-22T13:54:33.594Z,40.20
2018-08-22T13:57:01.688Z,39.50
2018-08-22T13:59:29.191Z,39.60
2018-08-22T14:01:56.715Z,39.60
2018-08-22T14:04:25.267Z,39.80
2018-08-22T14:06:52.763Z,39.50
2018-08-22T14:09:20.259Z,39.00
2018-08-22T14:11:48.466Z,39.00
2018-08-22T14:14:15.957Z,40.00
2018-08-22T14:16:44.214Z,39.40
2018-08-22T14:19:11.726Z,39.50
2018-08-22T14:21:39.226Z,37.60
2018-08-22T14:24:07.163Z,37.30
2018-08-22T14:26:34.676Z,37.00
2018-08-22T14:29:02.579Z,37.80
2018-08-22T14:31:30.429Z,37.80
2018-08-22T14:33:58.272Z,38.20
2018-08-22T14:36:25.792Z,38.50
2018-08-22T14:38:53.751Z,38.90
2018-08-22T14:41:21.248Z,39.80
2018-08-22T14:43:48.755Z,40.30
2018-08-22T14:46:17.238Z,40.70
2018-08-22T14:48:44.739Z,40.40
2018-08-22T14:51:12.641Z,41.10
2018-08-22T14:53:40.876Z,41.30
2018-08-22T14:56:08.872Z,41.70
2018-08-22T14:58:36.844Z,41.40
2018-08-22T15:01:04.555Z,41.90
2018-08-22T15:03:32.208Z,43.40
2018-08-22T15:05:59.640Z,44.20
2018-08-22T15:08:27.165Z,45.10
2018-08-22T15:10:54.759Z,45.70
2018-08-22T15:13:22.634Z,48.60
2018-08-22T15:15:50.693Z,48.60
2018-08-22T15:18:18.343Z,48.50
2018-08-22T15:20:46.420Z,50.50
2018-08-22T15:23:13.936Z,49.20
2018-08-22T15:25:41.776Z,49.80
2018-08-22T15:28:09.308Z,49.10
2018-08-22T15:30:38.428Z,49.30
2018-08-22T15:33:05.976Z,50.00
2018-08-22T15:35:33.485Z,50.10
2018-08-22T15:38:01.376Z,50.40
2018-08-22T15:40:28.945Z,50.40
2018-08-22T15:42:56.856Z,50.30
2018-08-22T15:45:25.013Z,50.50
2018-08-22T15:47:52.904Z,50.70
2018-08-22T15:50:20.432Z,52.00
2018-08-22T15:52:48.440Z,51.50
2018-08-22T15:55:17.730Z,51.40
2018-08-22T15:57:56.747Z,51.50
2018-08-22T16:00:44.427Z,50.70
2018-08-22T16:03:12.550Z,50.00
2018-08-22T16:05:41.765Z,47.70
2018-08-22T16:08:10.100Z,47.10
2018-08-22T16:10:37.636Z,46.10
2018-08-22T16:13:17.257Z,46.00
2018-08-22T16:15:45.716Z,45.90
2018-08-22T16:18:13.688Z,46.70
2018-08-22T16:20:50.658Z,47.70
2018-08-22T16:23:18.607Z,48.80
2018-08-22T16:25:48.794Z,48.70
2018-08-22T16:28:16.748Z,49.20
2018-08-22T16:30:56.691Z,49.90
2018-08-22T16:33:12.333Z,50.70
2018-08-22T16:35:40.245Z,51.20
2018-08-22T16:38:10.711Z,52.70
2018-08-22T16:40:40.138Z,52.90
2018-08-22T16:43:08.062Z,55.10
2018-08-22T16:45:44.970Z,55.50
2018-08-22T16:48:16.720Z,55.50
2018-08-22T16:50:45.151Z,54.80
2018-08-22T16:53:13.080Z,54.60
2018-08-22T16:55:41.087Z,54.40
2018-08-22T16:58:08.607Z,54.50
2018-08-22T17:00:44.242Z,54.60
2018-08-22T17:03:12.861Z,55.00
2018-08-22T17:05:41.043Z,55.00
2018-08-22T17:08:09.110Z,55.50
2018-08-22T17:10:48.575Z,58.70
2018-08-22T17:13:23.808Z,60.30
2018-08-22T17:15:51.390Z,59.80
2018-08-22T17:18:18.885Z,59.30
2018-08-22T17:20:47.208Z,59.30
2018-08-22T17:23:14.781Z,59.20
2018-08-22T17:25:42.390Z,59.10
2018-08-22T17:28:09.949Z,59.10
2018-08-22T17:30:41.480Z,59.40
2018-08-22T17:33:10.841Z,60.80
2018-08-22T17:35:42.431Z,60.40
2018-08-22T17:38:11.422Z,63.90
2018-08-22T17:40:40.685Z,61.60
2018-08-22T17:43:08.492Z,61.90
2018-08-22T17:45:38.581Z,62.20
2018-08-22T17:48:07.031Z,62.70
2018-08-22T17:50:35.253Z,63.10
2018-08-22T17:53:06.981Z,62.70
2018-08-22T17:55:34.829Z,63.70
2018-08-22T17:58:02.387Z,66.10
2018-08-22T18:00:31.660Z,66.70
2018-08-22T18:02:59.173Z,66.40
2018-08-22T18:05:26.925Z,66.40
2018-08-22T18:07:54.808Z,67.50
2018-08-22T18:10:23.152Z,66.50
2018-08-22T18:12:50.991Z,67.20
2018-08-22T18:15:18.482Z,67.10
2018-08-22T18:17:48.001Z,66.90
2018-08-22T18:20:16.088Z,67.10
2018-08-22T18:22:43.861Z,67.30
2018-08-22T18:25:11.497Z,68.40
2018-08-22T18:27:39.112Z,69.10
2018-08-22T18:30:10.103Z,73.10
2018-08-22T18:32:38.148Z,72.20
2018-08-22T18:35:10.812Z,72.70
2018-08-22T18:37:39.647Z,71.70
2018-08-22T18:40:14.885Z,70.20
2018-08-22T18:42:42.642Z,70.50
2018-08-22T18:45:10.195Z,70.40
2018-08-22T18:47:38.088Z,70.70
2018-08-22T18:50:06.354Z,73.40
2018-08-22T18:52:34.339Z,72.70
2018-08-22T18:55:02.369Z,71.30
2018-08-22T18:57:29.943Z,70.90
2018-08-22T18:59:57.645Z,71.20
2018-08-22T19:02:25.552Z,72.70
2018-08-22T19:04:53.703Z,71.90
2018-08-22T19:07:21.629Z,71.80
2018-08-22T19:09:49.725Z,71.90
2018-08-22T19:12:18.373Z,72.70
2018-08-22T19:14:47.259Z,72.60
2018-08-22T19:17:17.523Z,73.60
2018-08-22T19:19:46.418Z,73.20
2018-08-22T19:22:15.786Z,73.50
2018-08-22T19:24:59.418Z,73.60
2018-08-22T19:27:27.451Z,73.60
2018-08-22T19:29:55.062Z,73.50
2018-08-22T19:32:22.915Z,75.90
2018-08-22T19:34:55.386Z,77.00
2018-08-22T19:37:24.271Z,76.90
2018-08-22T19:40:00.709Z,76.00
2018-08-22T19:42:30.730Z,75.20
2018-08-22T19:44:58.626Z,75.90
2018-08-22T19:47:26.552Z,76.10
2018-08-22T19:49:54.859Z,75.60
2018-08-22T19:52:23.282Z,76.70
2018-08-22T19:54:50.831Z,76.40
2018-08-22T19:57:23.375Z,76.60
2018-08-22T19:59:51.882Z,76.80
2018-08-22T20:02:19.859Z,78.70
2018-08-22T20:04:47.550Z,78.50
2018-08-22T20:07:15.389Z,77.10
2018-08-22T20:09:44.243Z,76.70
2018-08-22T20:12:13.050Z,77.20
2018-08-22T20:14:50.834Z,77.20
2018-08-22T20:17:23.925Z,77.40
2018-08-22T20:19:51.701Z,76.90
2018-08-22T20:22:25.224Z,77.60
2018-08-22T20:24:55.895Z,78.30
2018-08-22T20:27:24.359Z,79.10
2018-08-22T20:29:53.827Z,80.80
2018-08-22T20:32:28.173Z,79.30
2018-08-22T20:34:56.506Z,80.40
2018-08-22T20:37:23.997Z,80.40
2018-08-22T20:39:57.207Z,80.10
2018-08-22T20:42:25.404Z,82.20
2018-08-22T20:44:53.399Z,81.50
2018-08-22T20:47:21.338Z,83.30
2018-08-22T20:49:49.445Z,80.80
2018-08-22T20:52:17.448Z,80.30
2018-08-22T20:54:53.463Z,79.60
2018-08-22T20:57:22.250Z,79.50
2018-08-22T20:59:50.280Z,79.90
2018-08-22T21:02:18.758Z,80.40
2018-08-22T21:04:46.835Z,81.00
2018-08-22T21:07:20.576Z,80.60
2018-08-22T21:09:48.202Z,80.50
2018-08-22T21:12:16.219Z,80.50
2018-08-22T21:14:43.762Z,80.50
2018-08-22T21:17:11.339Z,80.20
2018-08-22T21:19:38.950Z,81.10
2018-08-22T21:22:20.365Z,81.60
2018-08-22T21:24:47.926Z,83.10
2018-08-22T21:27:15.426Z,81.60
2018-08-22T21:29:43.896Z,81.50
2018-08-22T21:32:11.790Z,81.30
2018-08-22T21:34:39.396Z,82.10
2018-08-22T21:37:18.336Z,82.30
2018-08-22T21:39:45.879Z,83.00
2018-08-22T21:42:19.636Z,82.30
2018-08-22T21:44:47.709Z,82.50
2018-08-22T21:47:16.253Z,82.40
2018-08-22T21:49:44.581Z,82.40
2018-08-22T21:52:12.455Z,83.90
2018-08-22T21:54:40.002Z,82.90
2018-08-22T21:57:07.514Z,82.30
2018-08-22T21:59:35.563Z,82.30
2018-08-22T22:02:07.632Z,82.90
2018-08-22T22:04:36.480Z,82.80
2018-08-22T22:07:05.536Z,82.20
2018-08-22T22:09:35.329Z,83.50
2018-08-22T22:12:03.684Z,84.20
2018-08-22T22:14:32.231Z,83.40
2018-08-22T22:17:00.855Z,82.10
2018-08-22T22:19:30.611Z,82.60
2018-08-22T22:21:58.526Z,82.70
2018-08-22T22:24:26.055Z,82.30
2018-08-22T22:26:53.572Z,82.50
2018-08-22T22:29:24.201Z,83.50
2018-08-22T22:31:52.414Z,82.10
2018-08-22T22:34:20.544Z,82.60
2018-08-22T22:36:48.048Z,81.90
2018-08-22T22:39:32.812Z,82.20
2018-08-22T22:42:01.710Z,81.20
2018-08-22T22:44:29.216Z,80.90
2018-08-22T22:46:57.444Z,80.90
2018-08-22T22:49:25.324Z,80.90
2018-08-22T22:51:54.018Z,81.50
2018-08-22T22:54:33.621Z,80.60
2018-08-22T22:57:01.448Z,81.00
2018-08-22T22:59:29.307Z,80.30
2018-08-22T23:01:57.224Z,80.30
2018-08-22T23:04:24.960Z,80.30
2018-08-22T23:07:01.470Z,80.10
2018-08-22T23:09:34.301Z,79.70
2018-08-22T23:12:03.124Z,79.50
2018-08-22T23:14:30.652Z,79.50
2018-08-22T23:16:58.544Z,79.20
2018-08-22T23:19:26.054Z,79.20
2018-08-22T23:21:53.550Z,79.30
2018-08-22T23:24:21.158Z,79.20
2018-08-22T23:26:48.983Z,79.10
2018-08-22T23:29:16.830Z,79.20
2018-08-22T23:31:44.828Z,79.40
2018-08-22T23:34:12.998Z,79.70
2018-08-22T23:36:40.599Z,79.40
2018-08-22T23:39:08.263Z,79.20
2018-08-22T23:41:35.788Z,79.20
2018-08-22T23:44:03.305Z,79.00
2018-08-22T23:46:31.222Z,79.30
2018-08-22T23:49:00.145Z,79.80
2018-08-22T23:51:27.968Z,80.40
2018-08-22T23:53:57.759Z,80.20
2018-08-22T23:56:29.419Z,80.50
2018-08-22T23:58:57.743Z,80.90
